createdAt,value
2022-12-03T00:00:21.938Z,102201.38
2022-12-03T00:02:24.073Z,102195.09
2022-12-03T00:04:26.253Z,102198.78
2022-12-03T00:06:33.028Z,102196.63
2022-12-03T00:08:36.413Z,102200.63
2022-12-03T00:10:38.454Z,102198.06
2022-12-03T00:12:40.692Z,102202.31
2022-12-03T00:14:44.851Z,102199.81
2022-12-03T00:16:47.625Z,102202.09
2022-12-03T00:18:49.638Z,102196.31
2022-12-03T00:20:51.679Z,102204.88
2022-12-03T00:22:53.659Z,102200.09
2022-12-03T00:24:55.916Z,102203.03
2022-12-03T00:26:58.359Z,102196.72
2022-12-03T00:29:00.383Z,102200.41
2022-12-03T00:31:02.423Z,102208.31
2022-12-03T00:33:04.685Z,102197.53
2022-12-03T00:35:07.528Z,102195.41
2022-12-03T00:37:09.734Z,102193.66
2022-12-03T00:39:11.678Z,102196.22
2022-12-03T00:41:13.764Z,102196.31
2022-12-03T00:43:15.743Z,102192.22
2022-12-03T00:45:17.761Z,102184.13
2022-12-03T00:47:19.752Z,102193.09
2022-12-03T00:49:21.768Z,102187.16
2022-12-03T00:51:23.855Z,102188.84
2022-12-03T00:53:25.770Z,102188.59
2022-12-03T00:55:27.676Z,102189.88
2022-12-03T00:57:29.761Z,102190.38
2022-12-03T00:59:31.689Z,102192.16
2022-12-03T01:01:33.849Z,102187.88
2022-12-03T01:03:36.139Z,102184.75
2022-12-03T01:05:38.153Z,102182.34
2022-12-03T01:07:40.098Z,102187.00
2022-12-03T01:09:42.051Z,102182.69
2022-12-03T01:11:44.009Z,102177.19
2022-12-03T01:13:46.000Z,102178.66
2022-12-03T01:15:48.392Z,102178.66
2022-12-03T01:17:50.489Z,102177.06
2022-12-03T01:19:52.802Z,102180.41
2022-12-03T01:21:55.664Z,102184.06
2022-12-03T01:23:57.662Z,102190.06
2022-12-03T01:25:59.688Z,102180.50
2022-12-03T01:28:01.774Z,102188.25
2022-12-03T01:30:05.133Z,102188.75
2022-12-03T01:32:10.411Z,102181.06
2022-12-03T01:34:12.414Z,102188.75
2022-12-03T01:36:14.656Z,102193.50
2022-12-03T01:38:16.746Z,102192.28
2022-12-03T01:40:21.490Z,102199.03
2022-12-03T01:42:26.895Z,102200.63
2022-12-03T01:44:32.147Z,102193.16
2022-12-03T01:46:41.866Z,102191.41
2022-12-03T01:48:44.410Z,102188.91
2022-12-03T01:50:46.533Z,102197.63
2022-12-03T01:52:48.603Z,102187.81
2022-12-03T01:54:55.901Z,102194.78
2022-12-03T01:56:59.048Z,102191.97
2022-12-03T01:59:00.951Z,102188.34
2022-12-03T02:01:10.617Z,102187.00
2022-12-03T02:03:25.108Z,102189.88
2022-12-03T02:05:30.994Z,102182.50
2022-12-03T02:07:33.996Z,102187.81
2022-12-03T02:09:35.998Z,102187.16
2022-12-03T02:11:42.836Z,102192.28
2022-12-03T02:13:45.628Z,102180.03
2022-12-03T02:15:47.607Z,102188.56
2022-12-03T02:17:49.713Z,102178.34
2022-12-03T02:19:53.750Z,102178.00
2022-12-03T02:22:07.988Z,102186.16
2022-12-03T02:24:22.222Z,102179.94
2022-12-03T02:26:24.402Z,102183.84
2022-12-03T02:28:26.407Z,102176.09
2022-12-03T02:30:30.302Z,102169.31
2022-12-03T02:32:32.653Z,102162.94
2022-12-03T02:34:40.664Z,102165.34
2022-12-03T02:36:42.637Z,102169.00
2022-12-03T02:38:48.901Z,102175.91
2022-12-03T02:40:56.268Z,102169.22
2022-12-03T02:43:01.476Z,102166.88
2022-12-03T02:45:09.781Z,102164.38
2022-12-03T02:47:12.002Z,102161.91
2022-12-03T02:49:14.241Z,102164.84
2022-12-03T02:51:16.406Z,102166.06
2022-12-03T02:53:24.112Z,102160.38
2022-12-03T02:55:31.972Z,102164.78
2022-12-03T02:57:40.377Z,102153.63
2022-12-03T02:59:45.467Z,102148.34
2022-12-03T03:01:48.623Z,102159.66
2022-12-03T03:03:51.818Z,102151.78
2022-12-03T03:05:56.889Z,102148.44
2022-12-03T03:08:00.260Z,102147.41
2022-12-03T03:10:04.159Z,102146.44
2022-12-03T03:12:06.711Z,102144.75
2022-12-03T03:14:08.801Z,102154.13
2022-12-03T03:16:10.981Z,102152.03
2022-12-03T03:18:15.342Z,102143.56
2022-12-03T03:20:17.938Z,102152.22
2022-12-03T03:22:19.912Z,102144.84
2022-12-03T03:24:23.061Z,102142.50
2022-12-03T03:26:25.442Z,102142.50
2022-12-03T03:28:29.533Z,102143.53
2022-12-03T03:30:32.674Z,102143.88
2022-12-03T03:32:35.019Z,102141.31
2022-12-03T03:34:36.979Z,102131.38
2022-12-03T03:36:39.834Z,102127.13
2022-12-03T03:38:42.851Z,102141.22
2022-12-03T03:40:45.054Z,102127.03
2022-12-03T03:42:47.883Z,102140.00
2022-12-03T03:44:50.318Z,102135.88
2022-12-03T03:46:52.487Z,102132.97
2022-12-03T03:48:54.584Z,102131.22
2022-12-03T03:50:57.059Z,102120.47
2022-12-03T03:53:01.620Z,102123.44
2022-12-03T03:55:05.102Z,102128.00
2022-12-03T03:57:07.618Z,102126.25
2022-12-03T03:59:09.680Z,102128.22
2022-12-03T04:01:13.811Z,102129.44
2022-12-03T04:03:15.852Z,102127.63
2022-12-03T04:05:21.133Z,102124.56
2022-12-03T04:07:23.159Z,102135.69
2022-12-03T04:09:25.040Z,102130.28
2022-12-03T04:11:30.155Z,102121.25
2022-12-03T04:13:32.075Z,102119.00
2022-12-03T04:15:34.154Z,102120.63
2022-12-03T04:17:37.279Z,102116.38
2022-12-03T04:19:39.158Z,102122.50
2022-12-03T04:21:44.176Z,102125.22
2022-12-03T04:23:46.092Z,102117.38
2022-12-03T04:25:51.076Z,102114.06
2022-12-03T04:27:56.090Z,102119.00
2022-12-03T04:29:58.036Z,102115.34
2022-12-03T04:32:03.119Z,102109.25
2022-12-03T04:34:08.218Z,102118.84
2022-12-03T04:36:10.136Z,102110.13
2022-12-03T04:38:15.235Z,102120.53
2022-12-03T04:40:20.300Z,102116.06
2022-12-03T04:42:22.402Z,102113.72
2022-12-03T04:44:27.621Z,102113.66
2022-12-03T04:46:29.631Z,102102.94
2022-12-03T04:48:31.546Z,102105.31
2022-12-03T04:50:33.519Z,102092.69
2022-12-03T04:52:35.517Z,102092.56
2022-12-03T04:54:38.547Z,102091.63
2022-12-03T04:56:40.555Z,102092.50
2022-12-03T04:58:42.482Z,102097.47
2022-12-03T05:00:44.385Z,102094.50
2022-12-03T05:02:46.358Z,102097.56
2022-12-03T05:04:48.456Z,102099.75
2022-12-03T05:06:50.520Z,102099.31
2022-12-03T05:08:52.561Z,102096.81
2022-12-03T05:10:54.511Z,102097.69
2022-12-03T05:12:56.798Z,102095.44
2022-12-03T05:14:58.716Z,102099.47
2022-12-03T05:17:00.802Z,102098.59
2022-12-03T05:19:04.413Z,102081.78
2022-12-03T05:21:06.620Z,102090.44
2022-12-03T05:23:10.617Z,102081.59
2022-12-03T05:25:12.475Z,102084.09
2022-12-03T05:27:15.783Z,102071.34
2022-12-03T05:29:20.798Z,102074.00
2022-12-03T05:31:23.082Z,102068.16
2022-12-03T05:33:25.144Z,102076.16
2022-12-03T05:35:27.253Z,102066.31
2022-12-03T05:37:29.270Z,102083.13
2022-12-03T05:39:31.266Z,102072.41
2022-12-03T05:41:36.395Z,102076.03
2022-12-03T05:43:38.369Z,102082.88
2022-12-03T05:45:42.597Z,102078.09
2022-12-03T05:47:44.720Z,102072.22
2022-12-03T05:49:46.818Z,102071.19
2022-12-03T05:51:52.543Z,102063.34
2022-12-03T05:53:58.978Z,102068.56
2022-12-03T05:56:00.940Z,102057.66
2022-12-03T05:58:03.564Z,102053.41
2022-12-03T06:00:08.076Z,102056.63
2022-12-03T06:02:10.153Z,102053.34
2022-12-03T06:04:15.359Z,102056.28
2022-12-03T06:06:17.319Z,102049.44
2022-12-03T06:08:19.311Z,102047.59
2022-12-03T06:10:24.449Z,102044.84
2022-12-03T06:12:26.725Z,102046.00
2022-12-03T06:14:30.317Z,102040.88
2022-12-03T06:16:32.515Z,102043.56
2022-12-03T06:18:34.503Z,102039.09
2022-12-03T06:20:36.527Z,102035.88
2022-12-03T06:22:38.470Z,102042.94
2022-12-03T06:24:40.409Z,102041.66
2022-12-03T06:26:42.315Z,102042.28
2022-12-03T06:28:46.499Z,102035.81
2022-12-03T06:30:48.456Z,102042.59
2022-12-03T06:32:50.397Z,102040.06
2022-12-03T06:34:52.682Z,102042.78
2022-12-03T06:36:54.843Z,102037.88
2022-12-03T06:38:56.864Z,102041.09
2022-12-03T06:40:58.828Z,102033.78
2022-12-03T06:43:00.769Z,102028.19
2022-12-03T06:45:03.141Z,102028.38
2022-12-03T06:47:05.141Z,102037.00
2022-12-03T06:49:09.248Z,102030.28
2022-12-03T06:51:11.308Z,102030.59
2022-12-03T06:53:13.301Z,102030.75
2022-12-03T06:55:15.513Z,102024.91
2022-12-03T06:57:17.432Z,102017.94
2022-12-03T06:59:19.336Z,102015.56
2022-12-03T07:01:21.365Z,102024.19
2022-12-03T07:03:23.491Z,102017.84
2022-12-03T07:05:25.513Z,102020.69
2022-12-03T07:07:27.486Z,102013.38
2022-12-03T07:09:29.684Z,102017.47
2022-12-03T07:11:31.697Z,102011.31
2022-12-03T07:13:33.638Z,102014.97
2022-12-03T07:15:35.576Z,102004.97
2022-12-03T07:17:37.519Z,102007.78
2022-12-03T07:19:39.597Z,102005.06
2022-12-03T07:21:41.556Z,102010.13
2022-12-03T07:23:43.612Z,102014.16
2022-12-03T07:25:45.568Z,102009.16
2022-12-03T07:27:47.555Z,102000.66
2022-12-03T07:29:49.614Z,102002.56
2022-12-03T07:31:51.686Z,102002.41
2022-12-03T07:33:53.768Z,102000.41
2022-12-03T07:35:55.655Z,101999.94
2022-12-03T07:37:57.657Z,102004.03
2022-12-03T07:39:59.778Z,101999.31
2022-12-03T07:42:02.355Z,101999.22
2022-12-03T07:44:09.147Z,101997.22
2022-12-03T07:46:14.545Z,101995.53
2022-12-03T07:48:16.552Z,102007.53
2022-12-03T07:50:18.469Z,101991.50
2022-12-03T07:52:20.465Z,101993.84
2022-12-03T07:54:22.584Z,101995.69
2022-12-03T07:56:24.471Z,101996.50
2022-12-03T07:58:27.356Z,101996.16
2022-12-03T08:00:29.340Z,101997.28
2022-12-03T08:02:31.536Z,101994.88
2022-12-03T08:04:33.646Z,101988.00
2022-12-03T08:06:35.771Z,101999.84
2022-12-03T08:08:37.945Z,101992.41
2022-12-03T08:10:40.219Z,101989.97
2022-12-03T08:12:42.295Z,101985.28
2022-12-03T08:14:45.013Z,101989.91
2022-12-03T08:16:48.617Z,101987.34
2022-12-03T08:18:53.798Z,101979.03
2022-12-03T08:20:55.874Z,101977.09
2022-12-03T08:22:58.072Z,101977.34
2022-12-03T08:25:00.194Z,101979.50
2022-12-03T08:27:02.448Z,101971.97
2022-12-03T08:29:10.293Z,101970.34
2022-12-03T08:31:20.346Z,101963.31
2022-12-03T08:33:28.695Z,101972.84
2022-12-03T08:35:31.544Z,101964.13
2022-12-03T08:37:36.305Z,101966.53
2022-12-03T08:39:47.159Z,101960.28
2022-12-03T08:41:56.946Z,101964.28
2022-12-03T08:43:59.267Z,101958.34
2022-12-03T08:46:01.531Z,101962.78
2022-12-03T08:48:11.111Z,101953.22
2022-12-03T08:50:30.166Z,101947.28
2022-12-03T08:52:34.919Z,101946.50
2022-12-03T08:54:37.441Z,101948.56
2022-12-03T08:56:39.623Z,101943.69
2022-12-03T08:58:44.456Z,101944.31
2022-12-03T09:00:46.633Z,101944.63
2022-12-03T09:02:52.687Z,101950.66
2022-12-03T09:04:55.227Z,101940.53
2022-12-03T09:06:58.686Z,101944.16
2022-12-03T09:09:06.393Z,101940.25
2022-12-03T09:11:08.887Z,101942.56
2022-12-03T09:13:11.038Z,101945.44
2022-12-03T09:15:13.144Z,101943.69
2022-12-03T09:17:15.149Z,101949.16
2022-12-03T09:19:17.238Z,101947.59
2022-12-03T09:21:19.271Z,101947.59
2022-12-03T09:23:21.325Z,101943.34
2022-12-03T09:25:23.542Z,101935.25
2022-12-03T09:27:25.613Z,101941.69
2022-12-03T09:29:27.713Z,101936.28
2022-12-03T09:31:29.846Z,101937.91
2022-12-03T09:33:32.714Z,101941.00
2022-12-03T09:35:34.945Z,101932.22
2022-12-03T09:37:37.358Z,101936.47
2022-12-03T09:39:39.472Z,101936.81
2022-12-03T09:41:41.617Z,101932.66
2022-12-03T09:44:03.190Z,101934.25
2022-12-03T09:46:06.381Z,101940.38
2022-12-03T09:48:08.461Z,101933.53
2022-12-03T09:50:16.215Z,101930.31
2022-12-03T09:52:26.321Z,101930.47
2022-12-03T09:54:31.046Z,101931.50
2022-12-03T09:56:36.917Z,101924.91
2022-12-03T09:58:38.975Z,101924.91
2022-12-03T10:00:43.105Z,101926.44
2022-12-03T10:02:47.186Z,101927.84
2022-12-03T10:04:49.670Z,101913.41
2022-12-03T10:06:51.937Z,101910.53
2022-12-03T10:08:55.245Z,101917.72
2022-12-03T10:10:57.337Z,101910.97
2022-12-03T10:13:00.033Z,101911.03
2022-12-03T10:15:02.614Z,101909.34
2022-12-03T10:17:05.589Z,101905.41
2022-12-03T10:19:19.533Z,101900.13
2022-12-03T10:21:29.845Z,101895.28
2022-12-03T10:23:32.204Z,101896.44
2022-12-03T10:25:49.795Z,101897.00
2022-12-03T10:27:57.065Z,101896.38
2022-12-03T10:30:02.096Z,101893.19
2022-12-03T10:32:08.293Z,101886.16
2022-12-03T10:34:11.750Z,101886.31
2022-12-03T10:36:18.647Z,101875.47
2022-12-03T10:38:23.240Z,101872.28
2022-12-03T10:40:29.144Z,101876.16
2022-12-03T10:42:38.839Z,101872.16
2022-12-03T10:44:40.852Z,101861.97
2022-12-03T10:46:43.534Z,101866.16
2022-12-03T10:48:45.807Z,101859.00
2022-12-03T10:50:51.652Z,101864.94
2022-12-03T10:52:53.737Z,101858.59
2022-12-03T10:54:56.297Z,101858.38
2022-12-03T10:56:58.765Z,101862.50
2022-12-03T10:59:00.931Z,101854.25
2022-12-03T11:01:07.408Z,101851.09
2022-12-03T11:03:19.955Z,101851.69
2022-12-03T11:05:27.716Z,101844.34
2022-12-03T11:07:31.458Z,101847.63
2022-12-03T11:09:33.850Z,101851.34
2022-12-03T11:11:35.884Z,101838.56
2022-12-03T11:13:38.646Z,101835.94
2022-12-03T11:15:44.618Z,101828.00
2022-12-03T11:17:50.101Z,101829.81
2022-12-03T11:19:53.137Z,101826.63
2022-12-03T11:22:01.535Z,101820.47
2022-12-03T11:24:04.968Z,101814.06
2022-12-03T11:26:06.931Z,101809.84
2022-12-03T11:28:12.818Z,101814.28
2022-12-03T11:30:37.708Z,101810.25
2022-12-03T11:32:43.315Z,101809.72
2022-12-03T11:34:45.313Z,101806.56
2022-12-03T11:37:01.623Z,101793.59
2022-12-03T11:39:04.412Z,101792.91
2022-12-03T11:41:11.109Z,101797.56
2022-12-03T11:43:13.252Z,101788.97
2022-12-03T11:45:19.277Z,101777.16
2022-12-03T11:47:21.434Z,101772.06
2022-12-03T11:49:28.403Z,101775.47
2022-12-03T11:51:31.391Z,101766.34
2022-12-03T11:53:35.692Z,101760.53
2022-12-03T11:55:41.139Z,101766.72
2022-12-03T11:57:43.726Z,101752.81
2022-12-03T11:59:53.007Z,101761.09
2022-12-03T12:01:55.221Z,101756.31
2022-12-03T12:03:57.459Z,101750.31
2022-12-03T12:06:08.543Z,101750.91
2022-12-03T12:08:19.891Z,101749.44
2022-12-03T12:10:28.202Z,101750.25
2022-12-03T12:12:35.741Z,101752.22
2022-12-03T12:14:38.210Z,101743.63
2022-12-03T12:16:50.742Z,101752.38
2022-12-03T12:18:55.477Z,101741.06
2022-12-03T12:21:21.080Z,101738.38
2022-12-03T12:23:29.321Z,101732.38
2022-12-03T12:25:37.591Z,101741.34
2022-12-03T12:27:45.849Z,101724.59
2022-12-03T12:29:53.976Z,101725.75
2022-12-03T12:32:03.229Z,101727.34
2022-12-03T12:34:11.713Z,101723.06
2022-12-03T12:36:13.768Z,101722.06
2022-12-03T12:38:19.673Z,101724.19
2022-12-03T12:40:27.058Z,101715.97
2022-12-03T12:42:33.176Z,101716.56
2022-12-03T12:44:35.215Z,101718.31
2022-12-03T12:46:47.676Z,101703.78
2022-12-03T12:48:50.624Z,101713.66
2022-12-03T12:51:01.854Z,101709.34
2022-12-03T12:53:12.488Z,101702.66
2022-12-03T12:55:16.644Z,101703.06
2022-12-03T12:57:23.120Z,101701.41
2022-12-03T12:59:26.505Z,101698.91
2022-12-03T13:01:30.306Z,101698.66
2022-12-03T13:03:37.247Z,101706.38
2022-12-03T13:05:42.880Z,101699.75
2022-12-03T13:07:45.795Z,101699.28
2022-12-03T13:09:54.911Z,101706.19
2022-12-03T13:12:04.069Z,101699.97
2022-12-03T13:14:14.321Z,101706.06
2022-12-03T13:16:22.692Z,101694.72
2022-12-03T13:18:30.994Z,101697.91
2022-12-03T13:20:33.223Z,101700.84
2022-12-03T13:22:35.323Z,101701.41
2022-12-03T13:24:44.381Z,101695.78
2022-12-03T13:26:46.499Z,101685.69
2022-12-03T13:28:49.321Z,101684.25
2022-12-03T13:30:51.312Z,101685.75
2022-12-03T13:32:53.820Z,101677.69
2022-12-03T13:35:02.603Z,101670.22
2022-12-03T13:37:14.276Z,101679.94
2022-12-03T13:39:20.461Z,101666.41
2022-12-03T13:41:25.750Z,101670.31
2022-12-03T13:43:32.131Z,101661.16
2022-12-03T13:45:40.378Z,101663.78
2022-12-03T13:47:45.380Z,101661.16
2022-12-03T13:49:53.961Z,101652.59
2022-12-03T13:51:56.372Z,101656.91
2022-12-03T13:53:59.915Z,101654.78
2022-12-03T13:56:06.547Z,101653.19
2022-12-03T13:58:09.281Z,101653.63
2022-12-03T14:00:12.120Z,101657.41
2022-12-03T14:02:14.357Z,101641.53
2022-12-03T14:04:16.347Z,101649.53
2022-12-03T14:06:18.580Z,101649.59
2022-12-03T14:08:20.856Z,101647.13
2022-12-03T14:10:23.018Z,101644.88
2022-12-03T14:12:26.156Z,101635.94
2022-12-03T14:14:28.271Z,101638.72
2022-12-03T14:16:30.884Z,101643.13
2022-12-03T14:18:32.978Z,101646.25
2022-12-03T14:20:35.241Z,101634.34
2022-12-03T14:22:38.236Z,101638.50
2022-12-03T14:24:40.410Z,101636.97
2022-12-03T14:26:42.557Z,101634.19
2022-12-03T14:28:44.864Z,101630.84
2022-12-03T14:30:46.980Z,101631.28
2022-12-03T14:32:49.180Z,101630.94
2022-12-03T14:34:51.188Z,101629.91
2022-12-03T14:36:53.298Z,101631.66
2022-12-03T14:38:55.698Z,101626.41
2022-12-03T14:40:57.727Z,101633.44
2022-12-03T14:42:59.701Z,101634.63
2022-12-03T14:45:01.759Z,101638.06
2022-12-03T14:47:04.075Z,101631.03
2022-12-03T14:49:06.124Z,101632.69
2022-12-03T14:51:08.282Z,101637.75
2022-12-03T14:53:10.308Z,101638.63
2022-12-03T14:55:13.065Z,101635.84
2022-12-03T14:57:15.892Z,101637.28
2022-12-03T14:59:20.701Z,101636.50
2022-12-03T15:01:25.371Z,101648.84
2022-12-03T15:03:27.469Z,101645.31
2022-12-03T15:05:29.531Z,101646.13
2022-12-03T15:07:32.238Z,101646.91
2022-12-03T15:09:35.059Z,101640.03
2022-12-03T15:11:41.398Z,101640.22
2022-12-03T15:13:46.829Z,101643.00
2022-12-03T15:15:48.894Z,101638.63
2022-12-03T15:17:51.056Z,101635.13
2022-12-03T15:19:53.512Z,101624.81
2022-12-03T15:21:55.798Z,101630.63
2022-12-03T15:23:57.981Z,101627.38
2022-12-03T15:26:00.106Z,101626.50
2022-12-03T15:28:03.836Z,101632.84
2022-12-03T15:30:07.351Z,101624.59
2022-12-03T15:32:09.530Z,101624.59
2022-12-03T15:34:11.656Z,101627.72
2022-12-03T15:36:13.798Z,101629.03
2022-12-03T15:38:15.909Z,101619.41
2022-12-03T15:40:18.069Z,101624.50
2022-12-03T15:42:20.141Z,101621.81
2022-12-03T15:44:22.275Z,101628.66
2022-12-03T15:46:24.884Z,101620.72
2022-12-03T15:48:27.056Z,101628.06
2022-12-03T15:50:29.332Z,101623.25
2022-12-03T15:52:31.551Z,101622.81
2022-12-03T15:54:34.007Z,101627.41
2022-12-03T15:56:37.914Z,101625.59
2022-12-03T15:58:40.952Z,101629.03
2022-12-03T16:00:43.079Z,101630.78
2022-12-03T16:02:50.732Z,101631.00
2022-12-03T16:04:54.383Z,101626.69
2022-12-03T16:06:56.454Z,101632.91
2022-12-03T16:08:58.513Z,101625.50
2022-12-03T16:11:00.638Z,101629.84
2022-12-03T16:13:02.681Z,101626.53
2022-12-03T16:15:08.318Z,101629.09
2022-12-03T16:17:10.431Z,101627.78
2022-12-03T16:19:12.644Z,101624.00
2022-12-03T16:21:14.697Z,101623.50
2022-12-03T16:23:16.732Z,101626.03
2022-12-03T16:25:18.971Z,101631.22
2022-12-03T16:27:25.494Z,101620.56
2022-12-03T16:29:28.092Z,101623.31
2022-12-03T16:31:30.332Z,101623.31
2022-12-03T16:33:32.576Z,101624.94
2022-12-03T16:35:34.683Z,101626.03
2022-12-03T16:37:36.691Z,101629.03
2022-12-03T16:39:39.334Z,101636.38
2022-12-03T16:41:41.425Z,101623.31
2022-12-03T16:43:46.213Z,101633.63
2022-12-03T16:45:51.653Z,101632.59
2022-12-03T16:47:54.636Z,101630.59
2022-12-03T16:49:57.762Z,101627.22
2022-12-03T16:51:59.940Z,101631.03
2022-12-03T16:54:02.068Z,101628.72
2022-12-03T16:56:04.212Z,101632.97
2022-12-03T16:58:06.323Z,101626.16
2022-12-03T17:00:09.041Z,101618.50
2022-12-03T17:02:12.325Z,101624.63
2022-12-03T17:04:14.411Z,101620.44
2022-12-03T17:06:16.783Z,101620.44
2022-12-03T17:08:19.122Z,101616.25
2022-12-03T17:10:21.274Z,101623.47
2022-12-03T17:12:25.443Z,101618.38
2022-12-03T17:14:33.089Z,101614.88
2022-12-03T17:16:35.676Z,101611.22
2022-12-03T17:18:37.773Z,101606.84
2022-12-03T17:20:39.900Z,101613.25
2022-12-03T17:22:42.667Z,101618.13
2022-12-03T17:24:44.718Z,101618.75
2022-12-03T17:26:46.925Z,101614.97
2022-12-03T17:28:49.019Z,101619.22
2022-12-03T17:30:51.177Z,101611.81
2022-12-03T17:32:53.432Z,101615.13
2022-12-03T17:34:55.505Z,101606.63
2022-12-03T17:36:57.727Z,101611.31
2022-12-03T17:38:59.781Z,101606.81
2022-12-03T17:41:02.119Z,101612.44
2022-12-03T17:43:04.181Z,101605.19
2022-12-03T17:45:07.273Z,101597.66
2022-12-03T17:47:09.289Z,101598.19
2022-12-03T17:49:11.310Z,101605.94
2022-12-03T17:51:13.505Z,101612.06
2022-12-03T17:53:15.515Z,101601.69
2022-12-03T17:55:27.700Z,101600.53
2022-12-03T17:57:35.809Z,101596.22
2022-12-03T17:59:37.876Z,101598.09
2022-12-03T18:01:41.792Z,101596.53
2022-12-03T18:03:44.041Z,101605.88
2022-12-03T18:05:46.252Z,101599.16
2022-12-03T18:07:48.345Z,101600.53
2022-12-03T18:09:50.411Z,101605.34
2022-12-03T18:11:52.486Z,101603.78
2022-12-03T18:13:54.710Z,101606.88
2022-12-03T18:15:57.075Z,101609.22
2022-12-03T18:17:59.238Z,101611.00
2022-12-03T18:20:01.487Z,101605.94
2022-12-03T18:22:03.577Z,101603.44
2022-12-03T18:24:06.195Z,101612.75
2022-12-03T18:26:09.156Z,101600.53
2022-12-03T18:28:11.348Z,101603.97
2022-12-03T18:30:13.858Z,101607.63
2022-12-03T18:32:28.328Z,101600.53
2022-12-03T18:34:31.135Z,101597.22
2022-12-03T18:36:36.490Z,101599.47
2022-12-03T18:38:38.944Z,101604.78
2022-12-03T18:40:42.716Z,101593.72
2022-12-03T18:42:45.117Z,101587.38
2022-12-03T18:44:50.034Z,101598.78
2022-12-03T18:46:53.890Z,101601.00
2022-12-03T18:48:57.118Z,101597.28
2022-12-03T18:50:59.488Z,101594.63
2022-12-03T18:53:01.546Z,101596.63
2022-12-03T18:55:04.728Z,101591.44
2022-12-03T18:57:06.898Z,101584.03
2022-12-03T18:59:09.792Z,101583.28
2022-12-03T19:01:17.677Z,101590.31
2022-12-03T19:03:19.958Z,101587.53
2022-12-03T19:05:22.438Z,101574.69
2022-12-03T19:07:24.772Z,101577.31
2022-12-03T19:09:27.100Z,101571.38
2022-12-03T19:11:29.367Z,101569.81
2022-12-03T19:13:31.517Z,101569.75
2022-12-03T19:15:37.331Z,101562.91
2022-12-03T19:17:40.797Z,101565.59
2022-12-03T19:19:43.076Z,101554.97
2022-12-03T19:21:45.311Z,101562.84
2022-12-03T19:24:22.226Z,101560.22
2022-12-03T19:26:12.478Z,101570.56
2022-12-03T19:28:14.689Z,101559.03
2022-12-03T19:30:17.412Z,101558.16
2022-12-03T19:32:19.596Z,101559.31
2022-12-03T19:34:21.856Z,101549.41
2022-12-03T19:36:28.233Z,101561.94
2022-12-03T19:38:30.759Z,101557.78
2022-12-03T19:40:32.893Z,101562.31
2022-12-03T19:42:35.077Z,101558.00
2022-12-03T19:44:37.336Z,101564.44
2022-12-03T19:46:39.569Z,101561.38
2022-12-03T19:48:42.113Z,101561.56
2022-12-03T19:50:58.363Z,101563.50
2022-12-03T19:53:11.294Z,101562.38
2022-12-03T19:55:13.833Z,101563.13
2022-12-03T19:57:22.873Z,101565.44
2022-12-03T19:59:25.457Z,101564.66
2022-12-03T20:01:30.140Z,101559.41
2022-12-03T20:03:32.539Z,101562.91
2022-12-03T20:05:38.939Z,101569.69
2022-12-03T20:07:41.017Z,101556.47
2022-12-03T20:09:43.631Z,101562.53
2022-12-03T20:11:46.208Z,101573.56
2022-12-03T20:13:52.613Z,101565.97
2022-12-03T20:15:54.654Z,101565.25
2022-12-03T20:17:56.911Z,101564.41
2022-12-03T20:19:59.057Z,101567.22
2022-12-03T20:22:02.954Z,101572.41
2022-12-03T20:24:06.336Z,101570.81
2022-12-03T20:26:11.851Z,101573.28
2022-12-03T20:28:14.062Z,101567.28
2022-12-03T20:30:16.550Z,101567.91
2022-12-03T20:32:18.792Z,101566.81
2022-12-03T20:34:21.096Z,101569.38
2022-12-03T20:36:24.234Z,101572.38
2022-12-03T20:38:26.830Z,101576.44
2022-12-03T20:40:29.176Z,101568.94
2022-12-03T20:42:31.456Z,101566.44
2022-12-03T20:44:33.662Z,101573.19
2022-12-03T20:46:36.483Z,101568.81
2022-12-03T20:48:38.939Z,101559.94
2022-12-03T20:50:41.889Z,101568.41
2022-12-03T20:53:03.332Z,101559.19
2022-12-03T20:55:06.736Z,101559.13
2022-12-03T20:57:08.981Z,101563.28
2022-12-03T20:59:13.646Z,101562.63
2022-12-03T21:01:19.029Z,101561.88
2022-12-03T21:03:21.558Z,101552.06
2022-12-03T21:05:23.806Z,101568.41
2022-12-03T21:07:26.249Z,101562.41
2022-12-03T21:09:28.517Z,101566.66
2022-12-03T21:11:32.010Z,101557.03
2022-12-03T21:13:34.108Z,101552.63
2022-12-03T21:15:36.167Z,101560.13
2022-12-03T21:17:38.464Z,101561.41
2022-12-03T21:19:40.748Z,101559.50
2022-12-03T21:21:43.227Z,101557.63
2022-12-03T21:23:45.477Z,101554.47
2022-12-03T21:25:47.487Z,101561.13
2022-12-03T21:27:50.195Z,101553.81
2022-12-03T21:29:53.531Z,101547.81
2022-12-03T21:31:55.950Z,101556.50
2022-12-03T21:33:58.363Z,101557.59
2022-12-03T21:36:01.344Z,101552.78
2022-12-03T21:38:04.129Z,101544.38
2022-12-03T21:40:07.336Z,101557.09
2022-12-03T21:42:36.204Z,101548.75
2022-12-03T21:44:31.971Z,101550.09
2022-12-03T21:47:11.018Z,101547.47
2022-12-03T21:48:56.475Z,101544.31
2022-12-03T21:51:04.161Z,101536.16
2022-12-03T21:53:06.899Z,101539.25
2022-12-03T21:55:09.940Z,101539.72
2022-12-03T21:57:12.055Z,101541.34
2022-12-03T21:59:14.651Z,101532.38
2022-12-03T22:01:19.525Z,101526.97
2022-12-03T22:03:21.595Z,101523.59
2022-12-03T22:05:23.588Z,101515.19
2022-12-03T22:07:25.788Z,101519.09
2022-12-03T22:09:28.104Z,101519.34
2022-12-03T22:11:30.248Z,101517.69
2022-12-03T22:13:32.432Z,101512.75
2022-12-03T22:15:34.476Z,101524.47
2022-12-03T22:17:38.773Z,101523.34
2022-12-03T22:19:40.981Z,101521.13
2022-12-03T22:21:43.131Z,101522.72
2022-12-03T22:23:45.962Z,101524.41
2022-12-03T22:25:48.073Z,101522.13
2022-12-03T22:27:50.291Z,101523.00
2022-12-03T22:29:52.600Z,101526.31
2022-12-03T22:31:54.792Z,101526.09
2022-12-03T22:33:56.816Z,101522.13
2022-12-03T22:36:02.179Z,101520.56
2022-12-03T22:38:04.452Z,101517.94
2022-12-03T22:40:08.020Z,101514.56
2022-12-03T22:42:10.354Z,101514.44
2022-12-03T22:44:12.554Z,101513.50
2022-12-03T22:46:16.123Z,101522.41
2022-12-03T22:48:18.238Z,101514.00
2022-12-03T22:50:20.276Z,101511.38
2022-12-03T22:52:22.277Z,101509.00
2022-12-03T22:54:24.496Z,101508.91
2022-12-03T22:56:27.884Z,101515.59
2022-12-03T22:58:31.526Z,101518.16
2022-12-03T23:00:36.089Z,101517.81
2022-12-03T23:02:38.381Z,101520.03
2022-12-03T23:04:40.411Z,101503.47
2022-12-03T23:06:43.663Z,101508.78
2022-12-03T23:08:46.448Z,101502.88
2022-12-03T23:10:50.972Z,101504.63
2022-12-03T23:12:52.951Z,101500.00
2022-12-03T23:14:55.463Z,101492.34
2022-12-03T23:16:57.771Z,101494.84
2022-12-03T23:19:01.559Z,101488.84
2022-12-03T23:21:03.668Z,101490.72
2022-12-03T23:23:05.698Z,101488.81
2022-12-03T23:25:08.832Z,101498.34
2022-12-03T23:27:11.147Z,101490.88
2022-12-03T23:29:13.237Z,101496.88
2022-12-03T23:31:20.227Z,101493.44